createdAt,value
2022-10-24T00:00:31.250Z,15.85
2022-10-24T00:05:32.627Z,15.84
2022-10-24T00:10:33.921Z,15.71
2022-10-24T00:15:35.206Z,15.74
2022-10-24T00:20:38.178Z,15.78
2022-10-24T00:25:39.686Z,15.81
2022-10-24T00:30:40.985Z,15.78
2022-10-24T00:35:42.309Z,15.73
2022-10-24T00:40:43.994Z,15.75
2022-10-24T00:45:53.046Z,15.70
2022-10-24T00:50:58.520Z,15.68
2022-10-24T00:56:01.978Z,15.65
2022-10-24T01:01:04.710Z,15.57
2022-10-24T01:06:18.348Z,15.58
2022-10-24T01:11:38.523Z,15.54
2022-10-24T01:16:50.774Z,15.53
2022-10-24T01:22:01.780Z,15.50
2022-10-24T01:27:09.320Z,15.48
2022-10-24T01:32:38.577Z,15.48
2022-10-24T01:38:04.788Z,15.45
2022-10-24T01:43:11.893Z,15.40
2022-10-24T01:48:17.207Z,15.33
2022-10-24T01:53:21.221Z,15.31
2022-10-24T01:58:26.108Z,15.29
2022-10-24T02:03:36.422Z,15.27
2022-10-24T02:08:43.540Z,15.30
2022-10-24T02:13:49.973Z,15.30
2022-10-24T02:18:53.498Z,15.28
2022-10-24T02:24:03.813Z,15.26
2022-10-24T02:29:11.651Z,15.24
2022-10-24T02:34:14.457Z,15.25
2022-10-24T02:39:16.627Z,15.29
2022-10-24T02:44:19.373Z,15.25
2022-10-24T02:49:20.882Z,15.23
2022-10-24T02:54:22.187Z,15.20
2022-10-24T02:59:23.560Z,15.23
2022-10-24T03:04:24.869Z,15.19
2022-10-24T03:09:26.138Z,15.20
2022-10-24T03:14:27.629Z,15.26
2022-10-24T03:19:28.856Z,15.24
2022-10-24T03:24:43.466Z,15.16
2022-10-24T03:29:45.891Z,15.15
2022-10-24T03:34:47.310Z,15.18
2022-10-24T03:39:48.589Z,15.20
2022-10-24T03:44:49.858Z,15.19
2022-10-24T03:49:51.200Z,15.28
2022-10-24T03:54:52.536Z,15.29
2022-10-24T03:59:53.775Z,15.34
2022-10-24T04:04:55.046Z,15.39
2022-10-24T04:09:57.140Z,15.41
2022-10-24T04:15:02.417Z,15.41
2022-10-24T04:20:06.831Z,15.43
2022-10-24T04:25:08.321Z,15.43
2022-10-24T04:30:16.374Z,15.37
2022-10-24T04:35:18.181Z,15.41
2022-10-24T04:40:19.599Z,15.47
2022-10-24T04:45:20.909Z,15.49
2022-10-24T04:50:22.325Z,15.44
2022-10-24T04:55:23.597Z,15.52
2022-10-24T05:00:25.005Z,15.53
2022-10-24T05:05:26.250Z,15.48
2022-10-24T05:10:27.485Z,15.47
2022-10-24T05:15:30.192Z,15.54
2022-10-24T05:20:31.899Z,15.59
2022-10-24T05:25:33.393Z,15.56
2022-10-24T05:30:34.717Z,15.56
2022-10-24T05:35:36.165Z,15.54
2022-10-24T05:40:37.517Z,15.49
2022-10-24T05:45:38.913Z,15.50
2022-10-24T05:50:40.266Z,15.47
2022-10-24T05:55:41.557Z,15.48
2022-10-24T06:00:42.822Z,15.52
2022-10-24T06:05:44.158Z,15.58
2022-10-24T06:10:50.679Z,15.60
2022-10-24T06:15:52.009Z,15.60
2022-10-24T06:20:55.522Z,15.65
2022-10-24T06:25:57.852Z,15.62
2022-10-24T06:31:03.098Z,15.62
2022-10-24T06:36:07.731Z,15.60
2022-10-24T06:41:13.616Z,15.56
2022-10-24T06:46:16.662Z,15.56
2022-10-24T06:51:18.031Z,15.45
2022-10-24T06:56:19.453Z,15.44
2022-10-24T07:01:24.412Z,15.44
2022-10-24T07:06:28.573Z,15.53
2022-10-24T07:11:29.866Z,15.53
2022-10-24T07:16:31.121Z,15.56
2022-10-24T07:21:33.398Z,15.70
2022-10-24T07:26:34.691Z,15.77
2022-10-24T07:31:36.523Z,15.77
2022-10-24T07:36:42.820Z,15.83
2022-10-24T07:41:45.037Z,15.88
2022-10-24T07:46:46.436Z,15.82
2022-10-24T07:51:47.678Z,15.84
2022-10-24T07:56:48.945Z,15.89
2022-10-24T08:01:50.178Z,16.01
2022-10-24T08:06:51.601Z,16.08
2022-10-24T08:11:52.838Z,16.20
2022-10-24T08:16:54.069Z,16.31
2022-10-24T08:21:55.393Z,16.46
2022-10-24T08:26:56.766Z,16.50
2022-10-24T08:31:58.486Z,16.70
2022-10-24T08:36:59.775Z,16.88
2022-10-24T08:42:04.101Z,17.10
2022-10-24T08:47:19.085Z,17.53
2022-10-24T08:52:23.379Z,18.11
2022-10-24T08:57:31.524Z,18.59
2022-10-24T09:02:38.072Z,19.00
2022-10-24T09:07:40.137Z,18.98
2022-10-24T09:12:41.392Z,18.96
2022-10-24T09:17:43.759Z,19.05
2022-10-24T09:22:45.413Z,18.98
2022-10-24T09:27:47.043Z,18.80
2022-10-24T09:32:48.745Z,18.99
2022-10-24T09:37:55.864Z,19.33
2022-10-24T09:43:15.864Z,20.31
2022-10-24T09:48:36.073Z,21.36
2022-10-24T09:53:58.018Z,20.93
2022-10-24T09:59:17.962Z,20.89
2022-10-24T10:04:19.516Z,20.10
2022-10-24T10:09:28.023Z,19.35
2022-10-24T10:14:29.942Z,19.41
2022-10-24T10:19:38.272Z,19.84
2022-10-24T10:24:43.172Z,20.68
2022-10-24T10:29:44.441Z,20.34
2022-10-24T10:34:58.960Z,20.35
2022-10-24T10:40:19.229Z,20.87
2022-10-24T10:45:38.192Z,21.17
2022-10-24T10:50:56.172Z,22.18
2022-10-24T10:56:12.007Z,21.51
2022-10-24T11:01:24.975Z,21.02
2022-10-24T11:06:46.571Z,20.66
2022-10-24T11:12:01.123Z,20.52
2022-10-24T11:17:14.904Z,21.01
2022-10-24T11:22:31.043Z,21.18
2022-10-24T11:27:41.691Z,20.97
2022-10-24T11:32:49.772Z,20.93
2022-10-24T11:37:57.112Z,20.95
2022-10-24T11:43:10.902Z,21.10
2022-10-24T11:48:30.722Z,21.55
2022-10-24T11:53:35.150Z,21.58
2022-10-24T11:58:47.473Z,21.21
2022-10-24T12:04:24.470Z,21.23
2022-10-24T12:09:44.430Z,23.16
2022-10-24T12:15:08.815Z,24.31
2022-10-24T12:20:19.397Z,27.32
2022-10-24T12:25:37.498Z,28.47
2022-10-24T12:30:39.622Z,30.86
2022-10-24T12:35:40.913Z,34.10
2022-10-24T12:40:45.379Z,28.55
2022-10-24T12:45:46.797Z,27.38
2022-10-24T12:50:57.627Z,24.32
2022-10-24T12:55:58.842Z,23.53
2022-10-24T13:01:25.714Z,22.78
2022-10-24T13:06:46.208Z,24.72
2022-10-24T13:12:09.010Z,28.63
2022-10-24T13:17:15.970Z,24.64
2022-10-24T13:22:29.268Z,23.78
2022-10-24T13:27:31.821Z,24.57
2022-10-24T13:32:36.058Z,23.11
2022-10-24T13:37:44.507Z,23.08
2022-10-24T13:42:54.453Z,22.89
2022-10-24T13:48:01.339Z,22.31
2022-10-24T13:53:14.267Z,21.63
2022-10-24T13:58:20.463Z,21.75
2022-10-24T14:03:25.636Z,21.57
2022-10-24T14:08:31.478Z,22.32
2022-10-24T14:13:38.307Z,21.92
2022-10-24T14:18:41.296Z,21.42
2022-10-24T14:23:42.645Z,21.08
2022-10-24T14:28:50.580Z,20.79
2022-10-24T14:33:54.889Z,20.66
2022-10-24T14:38:59.102Z,20.55
2022-10-24T14:44:00.941Z,20.64
2022-10-24T14:49:30.069Z,21.62
2022-10-24T14:54:33.492Z,21.76
2022-10-24T14:59:38.940Z,21.34
2022-10-24T15:04:46.113Z,20.97
2022-10-24T15:10:13.095Z,20.54
2022-10-24T15:15:46.122Z,20.37
2022-10-24T15:20:49.754Z,20.16
2022-10-24T15:26:00.250Z,20.05
2022-10-24T15:31:01.562Z,19.96
2022-10-24T15:36:06.001Z,19.88
2022-10-24T15:41:09.130Z,19.84
2022-10-24T15:46:10.602Z,19.65
2022-10-24T15:51:16.637Z,19.49
2022-10-24T15:56:18.112Z,19.35
2022-10-24T16:01:38.404Z,19.28
2022-10-24T16:06:41.257Z,19.20
2022-10-24T16:11:42.784Z,19.11
2022-10-24T16:16:44.354Z,19.01
2022-10-24T16:21:45.717Z,18.97
2022-10-24T16:26:47.001Z,18.85
2022-10-24T16:31:50.614Z,18.85
2022-10-24T16:36:55.386Z,18.75
2022-10-24T16:41:58.273Z,18.68
2022-10-24T16:46:59.540Z,18.59
2022-10-24T16:52:00.845Z,18.51
2022-10-24T16:57:03.497Z,18.42
2022-10-24T17:02:04.898Z,18.36
2022-10-24T17:07:06.248Z,18.26
2022-10-24T17:12:08.425Z,18.19
2022-10-24T17:17:09.670Z,18.14
2022-10-24T17:22:11.550Z,18.07
2022-10-24T17:27:14.802Z,18.05
2022-10-24T17:32:16.873Z,17.99
2022-10-24T17:37:28.193Z,17.97
2022-10-24T17:42:29.597Z,17.86
2022-10-24T17:47:30.921Z,17.81
2022-10-24T17:52:32.337Z,17.73
2022-10-24T17:57:33.629Z,17.70
2022-10-24T18:02:34.895Z,17.64
2022-10-24T18:07:36.318Z,17.70
2022-10-24T18:12:39.743Z,17.65
2022-10-24T18:17:41.546Z,17.60
2022-10-24T18:22:43.965Z,17.52
2022-10-24T18:27:45.741Z,17.43
2022-10-24T18:32:47.478Z,17.38
2022-10-24T18:37:50.129Z,17.28
2022-10-24T18:43:04.032Z,17.29
2022-10-24T18:48:05.728Z,17.22
2022-10-24T18:53:21.394Z,17.17
2022-10-24T18:58:23.750Z,17.04
2022-10-24T19:03:34.020Z,17.04
2022-10-24T19:08:35.552Z,16.99
2022-10-24T19:13:37.000Z,16.97
2022-10-24T19:18:38.371Z,16.96
2022-10-24T19:23:39.639Z,16.92
2022-10-24T19:28:41.029Z,16.86
2022-10-24T19:33:42.533Z,16.82
2022-10-24T19:38:43.776Z,16.82
2022-10-24T19:43:45.033Z,16.85
2022-10-24T19:48:48.905Z,16.86
2022-10-24T19:53:51.963Z,16.76
2022-10-24T19:58:54.646Z,16.68
2022-10-24T20:03:56.777Z,16.61
2022-10-24T20:08:58.033Z,16.53
2022-10-24T20:13:59.334Z,16.49
2022-10-24T20:19:00.796Z,16.50
2022-10-24T20:24:02.094Z,16.44
2022-10-24T20:29:03.969Z,16.42
2022-10-24T20:34:09.664Z,16.40
2022-10-24T20:39:13.388Z,16.34
2022-10-24T20:44:15.376Z,16.30
2022-10-24T20:49:16.651Z,16.34
2022-10-24T20:54:19.242Z,16.33
2022-10-24T20:59:20.545Z,16.32
2022-10-24T21:04:22.012Z,16.20
2022-10-24T21:09:23.255Z,16.14
2022-10-24T21:14:24.477Z,16.13
2022-10-24T21:19:26.618Z,16.00
2022-10-24T21:24:27.854Z,15.96
2022-10-24T21:29:33.328Z,15.88
2022-10-24T21:34:35.347Z,15.83
2022-10-24T21:39:36.649Z,15.80
2022-10-24T21:44:37.896Z,15.71
2022-10-24T21:49:39.198Z,15.60
2022-10-24T21:54:40.473Z,15.51
2022-10-24T21:59:42.910Z,15.43
2022-10-24T22:04:44.201Z,15.40
2022-10-24T22:09:45.511Z,15.45
2022-10-24T22:14:46.781Z,15.37
2022-10-24T22:19:48.046Z,15.22
2022-10-24T22:24:49.285Z,15.23
2022-10-24T22:29:50.528Z,15.13
2022-10-24T22:34:52.039Z,15.10
2022-10-24T22:39:53.564Z,14.97
2022-10-24T22:44:55.957Z,14.93
2022-10-24T22:50:21.381Z,14.93
2022-10-24T22:55:34.408Z,14.92
2022-10-24T23:00:35.976Z,14.84
2022-10-24T23:05:59.704Z,14.70
2022-10-24T23:11:01.341Z,14.74
2022-10-24T23:16:13.943Z,14.65
2022-10-24T23:21:31.566Z,14.64
2022-10-24T23:26:42.702Z,14.59
2022-10-24T23:31:44.166Z,14.62
2022-10-24T23:36:45.706Z,14.68
2022-10-24T23:41:47.392Z,14.69
2022-10-24T23:46:56.930Z,14.72
2022-10-24T23:52:16.870Z,14.64
2022-10-24T23:57:19.619Z,14.56
